Time;durP1;ratioP1;P1;durP2;ratioP2;P2;SDS_P1;SDS_P2;PMS_P1;PMS_P2;Temp;Humidity;BMP_temperature;BMP_pressure;BME280_temperature;BME280_humidity;BME280_pressure;Samples;Min_cycle;Max_cycle;Signal;HPM_P1;HPM_P2
2021/03/12 00:01:23;;;;;;;17.85;2.63;;;;;;;6.15;78.93;100081.91;5122115;27;20043;-47
2021/03/12 00:03:50;;;;;;;14.98;2.60;;;;;;;6.18;78.66;100086.03;5118115;27;20086;-46
2021/03/12 00:06:17;;;;;;;20.95;2.80;;;;;;;6.18;78.56;100091.56;5124180;27;20043;-47
2021/03/12 00:08:46;;;;;;;18.85;3.08;;;;;;;6.18;78.53;100091.56;5116854;27;20052;-47
2021/03/12 00:11:13;;;;;;;14.52;2.55;;;;;;;6.16;78.61;100094.63;5125395;27;20599;-49
2021/03/12 00:13:41;;;;;;;14.23;2.78;;;;;;;6.16;78.38;100096.56;5116900;27;20377;-48
2021/03/12 00:16:09;;;;;;;13.70;2.95;;;;;;;6.16;78.64;100102.13;5107624;28;20043;-50
2021/03/12 00:18:38;;;;;;;22.52;2.83;;;;;;;6.14;78.66;100107.13;5114915;27;20047;-46
2021/03/12 00:21:06;;;;;;;15.60;2.50;;;;;;;6.11;78.94;100113.22;5107515;28;20058;-49
2021/03/12 00:23:34;;;;;;;18.60;2.53;;;;;;;6.05;78.67;100109.66;5096587;27;20466;-46
2021/03/12 00:26:03;;;;;;;15.40;2.60;;;;;;;6.00;78.93;100106.91;5101618;27;20445;-48
2021/03/12 00:28:33;;;;;;;18.10;3.30;;;;;;;5.94;79.13;100118.31;5134556;27;20062;-47
2021/03/12 00:31:02;;;;;;;18.08;2.63;;;;;;;5.85;79.05;100126.38;5119854;27;20048;-47
2021/03/12 00:33:31;;;;;;;18.80;2.60;;;;;;;5.79;79.65;100139.44;5133962;27;20130;-49
2021/03/12 00:35:59;;;;;;;15.10;2.58;;;;;;;5.77;79.86;100144.44;5102142;28;20054;-46
2021/03/12 00:38:27;;;;;;;16.90;2.58;;;;;;;5.75;79.82;100143.06;5134469;27;20054;-47
2021/03/12 00:40:56;;;;;;;18.75;3.00;;;;;;;5.71;79.78;100141.97;5103160;28;20054;-48
2021/03/12 00:43:26;;;;;;;13.65;2.33;;;;;;;5.72;79.70;100147.22;5114172;27;20057;-47
2021/03/12 00:45:59;;;;;;;17.77;2.28;;;;;;;5.72;79.68;100155.50;5122754;27;20126;-47
2021/03/12 00:48:28;;;;;;;20.23;3.03;;;;;;;5.71;79.49;100151.09;5112614;27;20392;-49
2021/03/12 00:50:57;;;;;;;18.38;2.97;;;;;;;5.73;79.48;100164.66;5106298;28;20047;-51
2021/03/12 00:53:34;;;;;;;19.15;2.53;;;;;;;5.71;79.62;100159.41;5111500;27;20047;-49
2021/03/12 00:56:03;;;;;;;23.67;2.85;;;;;;;5.70;79.69;100168.81;5106901;28;20046;-51
2021/03/12 00:58:32;;;;;;;20.25;3.13;;;;;;;5.66;79.98;100170.47;5110233;27;20067;-49
2021/03/12 01:01:02;;;;;;;17.77;3.15;;;;;;;5.63;80.08;100173.81;5107840;28;20444;-51
2021/03/12 01:03:34;;;;;;;15.77;2.35;;;;;;;5.62;79.79;100172.16;5109017;27;20050;-48
2021/03/12 01:06:07;;;;;;;16.55;3.20;;;;;;;5.63;79.76;100172.97;5109078;27;20063;-50
2021/03/12 01:08:50;;;;;;;23.10;3.05;;;;;;;5.60;79.81;100190.97;5109325;27;20108;-49
2021/03/12 01:11:22;;;;;;;17.02;2.33;;;;;;;5.61;79.63;100172.44;5108483;28;20047;-47
2021/03/12 01:13:49;;;;;;;15.98;3.03;;;;;;;5.59;80.13;100202.34;5107232;27;20055;-47
2021/03/12 01:16:17;;;;;;;21.48;3.10;;;;;;;5.60;79.85;100199.28;5110307;27;20463;-47
2021/03/12 01:18:46;;;;;;;19.08;3.17;;;;;;;5.61;79.77;100208.41;5106160;27;20053;-46
2021/03/12 01:21:19;;;;;;;22.25;3.53;;;;;;;5.59;80.07;100208.72;5129331;27;20049;-47
2021/03/12 01:23:50;;;;;;;20.40;2.90;;;;;;;5.59;80.05;100205.97;5104746;27;20184;-46
2021/03/12 01:26:19;;;;;;;21.33;2.95;;;;;;;5.57;80.15;100213.72;5103429;28;20047;-49
2021/03/12 01:28:50;;;;;;;13.25;2.47;;;;;;;5.54;79.80;100215.09;5103354;27;20497;-52
2021/03/12 01:31:28;;;;;;;12.85;2.33;;;;;;;5.54;79.77;100211.50;5111861;27;20047;-52
2021/03/12 01:34:02;;;;;;;18.65;2.80;;;;;;;5.52;79.82;100214.53;5121532;27;20055;-53
2021/03/12 01:36:36;;;;;;;16.13;2.55;;;;;;;5.51;79.85;100217.59;5110316;27;20052;-48
2021/03/12 01:39:06;;;;;;;21.33;2.95;;;;;;;5.52;79.76;100227.56;5103397;27;20047;-50
2021/03/12 01:41:33;;;;;;;21.45;3.70;;;;;;;5.53;79.15;100234.75;5129767;27;20133;-48
2021/03/12 01:44:10;;;;;;;20.50;2.80;;;;;;;5.52;79.48;100242.22;5102728;27;20112;-48
2021/03/12 01:46:40;;;;;;;18.50;2.85;;;;;;;5.50;79.02;100236.13;5111245;27;20039;-49
2021/03/12 01:49:08;;;;;;;16.98;2.80;;;;;;;5.51;78.91;100242.50;5102844;27;20062;-47
2021/03/12 01:51:35;;;;;;;16.25;2.78;;;;;;;5.48;78.74;100237.53;5131296;27;20070;-48
2021/03/12 01:54:03;;;;;;;24.67;3.53;;;;;;;5.48;78.97;100226.44;5119901;27;20122;-48
2021/03/12 01:56:30;;;;;;;14.93;2.53;;;;;;;5.48;78.63;100243.88;5113674;27;20088;-48
2021/03/12 01:59:08;;;;;;;14.85;2.30;;;;;;;5.49;78.51;100250.25;5106539;27;20140;-48
2021/03/12 02:01:59;;;;;;;20.00;2.92;;;;;;;5.48;78.33;100254.13;5112783;27;20249;-47
2021/03/12 02:04:42;;;;;;;16.63;2.33;;;;;;;5.47;78.20;100258.00;5104753;28;20048;-49
2021/03/12 02:07:14;;;;;;;24.83;3.30;;;;;;;5.48;78.20;100265.19;5113681;27;20491;-51
2021/03/12 02:09:51;;;;;;;18.75;2.67;;;;;;;5.51;77.91;100270.16;5105584;28;20519;-49
2021/03/12 02:12:25;;;;;;;14.80;2.25;;;;;;;5.52;77.92;100263.53;5112768;27;20472;-48
2021/03/12 02:15:00;;;;;;;19.30;3.00;;;;;;;5.51;77.93;100264.63;5102334;28;20083;-45
2021/03/12 02:17:35;;;;;;;19.77;2.97;;;;;;;5.51;78.09;100261.88;5091274;28;20051;-45
2021/03/12 02:20:28;;;;;;;19.70;3.05;;;;;;;5.51;77.88;100264.63;5098284;28;20035;-47
2021/03/12 02:23:12;;;;;;;14.38;2.30;;;;;;;5.49;77.80;100273.22;5107405;28;20109;-47
2021/03/12 02:25:45;;;;;;;17.58;2.30;;;;;;;5.49;77.48;100269.63;5090396;28;20040;-48
2021/03/12 02:28:16;;;;;;;16.38;2.30;;;;;;;5.50;77.50;100279.56;5092501;28;20082;-45
2021/03/12 02:30:45;;;;;;;19.25;2.80;;;;;;;5.52;77.47;100282.91;5101676;28;20106;-46
2021/03/12 02:33:13;;;;;;;21.63;3.33;;;;;;;5.53;77.90;100281.78;5092196;28;20128;-46
2021/03/12 02:35:46;;;;;;;22.77;2.95;;;;;;;5.55;78.02;100282.34;5101696;28;20044;-46
2021/03/12 02:38:34;;;;;;;18.00;2.78;;;;;;;5.51;78.16;100279.31;5093458;28;20040;-48
2021/03/12 02:41:08;;;;;;;21.80;3.10;;;;;;;5.51;78.23;100290.38;5101817;28;20063;-48
2021/03/12 02:43:43;;;;;;;17.15;3.45;;;;;;;5.50;78.20;100282.34;5092673;28;20097;-48
2021/03/12 02:46:14;;;;;;;17.23;2.80;;;;;;;5.48;78.63;100290.94;5100648;28;20067;-47
2021/03/12 02:48:44;;;;;;;15.05;2.40;;;;;;;5.47;78.69;100278.19;5092397;28;20060;-47
2021/03/12 02:51:11;;;;;;;17.58;2.80;;;;;;;5.44;78.71;100283.47;5101210;28;20071;-46
2021/03/12 02:53:39;;;;;;;24.95;2.70;;;;;;;5.44;79.10;100286.22;5092075;28;20048;-47
2021/03/12 02:56:21;;;;;;;20.13;2.50;;;;;;;5.44;79.46;100298.13;5101343;28;20143;-47
2021/03/12 02:58:51;;;;;;;24.05;2.90;;;;;;;5.46;79.56;100295.06;5090819;28;20097;-48
2021/03/12 03:01:34;;;;;;;22.33;2.80;;;;;;;5.45;79.83;100285.94;5100369;28;20040;-48
2021/03/12 03:04:17;;;;;;;17.02;3.13;;;;;;;5.44;80.15;100295.34;5092206;28;20040;-47
2021/03/12 03:07:01;;;;;;;19.15;3.05;;;;;;;5.42;80.12;100282.91;5100644;28;20052;-47
2021/03/12 03:09:31;;;;;;;21.60;3.60;;;;;;;5.40;80.61;100287.88;5092092;28;20078;-48
2021/03/12 03:11:59;;;;;;;23.42;3.25;;;;;;;5.38;80.71;100285.44;5101001;28;20497;-47
2021/03/12 03:14:29;;;;;;;20.27;3.05;;;;;;;5.39;80.26;100289.84;5090394;28;20143;-47
2021/03/12 03:16:58;;;;;;;24.75;3.08;;;;;;;5.39;80.88;100273.25;5099335;28;20067;-48
2021/03/12 03:19:28;;;;;;;18.02;3.05;;;;;;;5.38;80.78;100288.19;5109970;28;20044;-49
2021/03/12 03:21:57;;;;;;;24.63;3.92;;;;;;;5.38;80.70;100293.72;5096050;28;20058;-49
2021/03/12 03:24:24;;;;;;;13.57;2.70;;;;;;;5.39;80.80;100287.09;5110993;28;20051;-47
2021/03/12 03:26:51;;;;;;;28.98;3.90;;;;;;;5.37;81.03;100285.69;5095976;28;20040;-49
2021/03/12 03:29:18;;;;;;;22.58;3.35;;;;;;;5.36;80.84;100295.09;5109425;28;20096;-46
2021/03/12 03:31:46;;;;;;;19.95;3.60;;;;;;;5.35;80.81;100301.75;5096602;28;20056;-48
2021/03/12 03:34:13;;;;;;;21.17;3.00;;;;;;;5.34;80.99;100291.78;5108886;28;20055;-46
2021/03/12 03:36:42;;;;;;;20.00;2.92;;;;;;;5.33;81.46;100298.44;5098069;28;20055;-50
2021/03/12 03:39:10;;;;;;;21.45;2.90;;;;;;;5.33;81.39;100293.72;5106824;28;20052;-50
2021/03/12 03:41:41;;;;;;;18.08;3.63;;;;;;;5.34;81.06;100300.09;5100072;28;20055;-47
2021/03/12 03:44:21;;;;;;;24.65;3.10;;;;;;;5.34;81.50;100289.03;5106672;28;20071;-48
2021/03/12 03:46:49;;;;;;;24.65;3.85;;;;;;;5.35;81.12;100291.50;5101803;28;20536;-49
2021/03/12 03:49:19;;;;;;;20.67;3.10;;;;;;;5.34;80.76;100294.56;5104207;28;20092;-47
2021/03/12 03:51:49;;;;;;;24.85;3.40;;;;;;;5.33;80.96;100299.25;5101776;28;20106;-47
2021/03/12 03:54:22;;;;;;;17.05;2.78;;;;;;;5.36;80.79;100311.72;5104372;28;20047;-50
2021/03/12 03:56:56;;;;;;;21.83;2.58;;;;;;;5.36;80.88;100317.25;5101838;28;20047;-48
2021/03/12 03:59:24;;;;;;;24.50;3.65;;;;;;;5.39;80.75;100308.38;5104605;28;20040;-47
2021/03/12 04:01:52;;;;;;;18.55;2.92;;;;;;;5.39;80.87;100306.44;5107765;28;20522;-49
2021/03/12 04:04:21;;;;;;;24.90;3.05;;;;;;;5.40;80.91;100310.00;5103648;28;20051;-48
2021/03/12 04:06:48;;;;;;;21.30;3.10;;;;;;;5.40;80.49;100305.31;5110984;28;20108;-48
2021/03/12 04:09:17;;;;;;;22.90;2.83;;;;;;;5.42;80.47;100313.34;5102470;28;20117;-49
2021/03/12 04:11:48;;;;;;;21.73;3.15;;;;;;;5.44;80.05;100317.50;5109343;28;20051;-47
2021/03/12 04:14:24;;;;;;;21.15;2.60;;;;;;;5.45;80.07;100315.56;5101532;28;20479;-47
2021/03/12 04:16:54;;;;;;;17.65;2.65;;;;;;;5.44;80.17;100317.50;5110658;28;20036;-46
2021/03/12 04:19:23;;;;;;;21.13;3.13;;;;;;;5.46;80.12;100319.97;5101529;28;20047;-47
2021/03/12 04:21:50;;;;;;;21.00;2.63;;;;;;;5.48;80.17;100321.38;5109752;28;20062;-49
2021/03/12 04:24:19;;;;;;;14.10;2.53;;;;;;;5.49;80.03;100323.03;5100936;28;20040;-50
2021/03/12 04:26:47;;;;;;;21.83;3.22;;;;;;;5.48;80.38;100323.31;5096189;28;20078;-48
2021/03/12 04:29:19;;;;;;;18.98;3.40;;;;;;;5.49;80.05;100324.97;5100719;28;20135;-46
2021/03/12 04:31:46;;;;;;;19.33;2.78;;;;;;;5.50;80.02;100321.09;5111139;28;20051;-48
2021/03/12 04:34:15;;;;;;;26.92;3.60;;;;;;;5.50;80.06;100326.63;5099493;28;20501;-49
2021/03/12 04:36:44;;;;;;;21.00;2.97;;;;;;;5.50;79.94;100323.84;5112608;28;20048;-48
2021/03/12 04:39:13;;;;;;;25.70;3.40;;;;;;;5.52;79.99;100321.63;5097474;28;20408;-47
2021/03/12 04:41:40;;;;;;;14.90;2.63;;;;;;;5.51;79.96;100322.75;5112403;28;20101;-47
2021/03/12 04:44:13;;;;;;;24.50;3.35;;;;;;;5.51;79.21;100328.28;5099299;28;20084;-46
2021/03/12 04:46:40;;;;;;;17.45;2.55;;;;;;;5.52;79.23;100327.19;5111146;28;20146;-50
2021/03/12 04:49:11;;;;;;;17.63;2.80;;;;;;;5.53;78.96;100326.06;5100554;28;20056;-49
2021/03/12 04:51:43;;;;;;;22.70;3.25;;;;;;;5.54;78.98;100336.88;5110098;28;20476;-48
2021/03/12 04:54:13;;;;;;;21.90;3.05;;;;;;;5.57;78.74;100326.34;5103232;28;20040;-48
2021/03/12 04:56:41;;;;;;;24.42;2.70;;;;;;;5.56;78.21;100338.53;5109246;28;20054;-47
2021/03/12 04:59:10;;;;;;;18.90;2.72;;;;;;;5.61;78.78;100331.03;5104233;28;20055;-48
2021/03/12 05:01:38;;;;;;;22.45;3.50;;;;;;;5.60;78.65;100329.34;5106752;28;20044;-48
2021/03/12 05:04:07;;;;;;;16.25;2.88;;;;;;;5.60;79.05;100323.81;5106382;28;20090;-48
2021/03/12 05:06:37;;;;;;;16.95;2.40;;;;;;;5.57;79.29;100326.34;5104038;28;20272;-47
2021/03/12 05:09:18;;;;;;;29.75;3.28;;;;;;;5.57;79.28;100335.47;5104935;28;20044;-48
2021/03/12 05:11:45;;;;;;;21.38;3.78;;;;;;;5.56;79.70;100328.28;5105031;28;20048;-47
2021/03/12 05:14:19;;;;;;;23.23;3.42;;;;;;;5.56;79.81;100331.06;5105632;28;20052;-48
2021/03/12 05:16:47;;;;;;;24.58;3.60;;;;;;;5.54;79.71;100334.09;5103497;28;20039;-49
2021/03/12 05:19:18;;;;;;;37.10;4.47;;;;;;;5.55;79.70;100326.63;5108686;28;20038;-49
2021/03/12 05:21:47;;;;;;;20.48;2.97;;;;;;;5.54;80.19;100333.25;5102863;28;20082;-49
2021/03/12 05:24:20;;;;;;;19.25;2.78;;;;;;;5.53;79.59;100342.66;5108830;28;20050;-48
2021/03/12 05:26:48;;;;;;;16.90;2.72;;;;;;;5.54;79.93;100333.25;5097526;28;20051;-47
2021/03/12 05:29:19;;;;;;;23.33;3.28;;;;;;;5.54;79.88;100338.78;5093723;28;20044;-49
2021/03/12 05:31:52;;;;;;;21.73;2.92;;;;;;;5.54;79.72;100336.03;5102598;28;20067;-49
2021/03/12 05:34:19;;;;;;;22.50;3.00;;;;;;;5.56;79.84;100335.75;5093212;28;20044;-46
2021/03/12 05:36:46;;;;;;;39.13;4.78;;;;;;;5.56;79.58;100339.34;5103716;28;20125;-50
2021/03/12 05:39:19;;;;;;;20.20;3.45;;;;;;;5.57;80.05;100342.94;5092248;28;20050;-48
2021/03/12 05:41:48;;;;;;;25.35;3.42;;;;;;;5.56;79.27;100344.06;5102212;28;20051;-46
2021/03/12 05:44:18;;;;;;;22.27;3.40;;;;;;;5.57;79.80;100343.78;5092024;28;20357;-48
2021/03/12 05:46:46;;;;;;;23.40;2.78;;;;;;;5.57;79.62;100351.25;5103200;28;20043;-48
2021/03/12 05:49:15;;;;;;;28.17;3.67;;;;;;;5.58;79.24;100342.66;5090389;28;20454;-47
2021/03/12 05:51:45;;;;;;;23.05;3.67;;;;;;;5.59;78.99;100344.34;5104473;28;20121;-47
2021/03/12 05:54:12;;;;;;;19.70;3.38;;;;;;;5.60;78.86;100356.19;5091976;28;20044;-46
2021/03/12 05:56:42;;;;;;;25.60;3.97;;;;;;;5.61;78.78;100342.09;5103142;28;20058;-47
2021/03/12 05:59:10;;;;;;;29.35;3.90;;;;;;;5.64;79.13;100349.00;5086968;28;20535;-46
2021/03/12 06:01:43;;;;;;;25.65;3.35;;;;;;;5.65;78.81;100343.19;5100336;28;20051;-46
2021/03/12 06:04:13;;;;;;;27.05;4.72;;;;;;;5.67;78.73;100340.16;5090394;28;20052;-47
2021/03/12 06:06:42;;;;;;;22.27;3.28;;;;;;;5.67;79.18;100343.75;5099951;28;20051;-49
2021/03/12 06:09:10;;;;;;;24.85;3.58;;;;;;;5.71;78.90;100364.22;5091284;28;20052;-49
2021/03/12 06:11:38;;;;;;;24.38;3.67;;;;;;;5.71;79.21;100357.88;5098184;28;20071;-52
2021/03/12 06:14:06;;;;;;;26.73;4.22;;;;;;;5.71;79.25;100350.41;5105491;28;20155;-47
2021/03/12 06:16:55;;;;;;;23.25;3.63;;;;;;;5.72;79.35;100354.00;5102676;27;20376;-45
2021/03/12 06:19:31;;;;;;;32.40;3.97;;;;;;;5.71;79.61;100352.31;5096490;28;20420;-46
2021/03/12 06:22:21;;;;;;;25.83;3.63;;;;;;;5.70;79.82;100356.22;5122651;27;20483;-47
2021/03/12 06:24:52;;;;;;;24.10;3.25;;;;;;;5.72;79.67;100359.53;5114393;27;20112;-47
2021/03/12 06:27:30;;;;;;;26.52;3.67;;;;;;;5.71;79.69;100355.94;5101495;28;20069;-48
2021/03/12 06:30:19;;;;;;;22.88;3.90;;;;;;;5.75;79.93;100364.50;5109996;28;20519;-49
2021/03/12 06:33:27;;;;;;;22.98;3.75;;;;;;;5.76;80.12;100347.63;5028505;28;20189;-50
2021/03/12 06:36:05;;;;;;;33.20;3.92;;;;;;;5.76;80.73;100358.69;5121069;27;20151;-46
2021/03/12 06:38:55;;;;;;;33.13;4.28;;;;;;;5.74;81.04;100363.69;5104372;28;20039;-47
2021/03/12 06:41:43;;;;;;;27.33;4.25;;;;;;;5.75;81.16;100359.81;5095790;28;20457;-46
2021/03/12 06:44:28;;;;;;;29.98;4.18;;;;;;;5.77;81.35;100362.28;5104557;28;20063;-48
2021/03/12 06:46:58;;;;;;;30.92;4.82;;;;;;;5.76;81.85;100355.09;5095437;28;20039;-51
2021/03/12 06:49:27;;;;;;;32.30;4.38;;;;;;;5.79;81.80;100352.59;5117949;27;20043;-50
2021/03/12 06:52:17;;;;;;;40.70;5.22;;;;;;;5.82;81.66;100346.47;5094757;28;20043;-48
2021/03/12 06:54:53;;;;;;;31.45;4.80;;;;;;;5.84;81.92;100357.28;5103367;28;20078;-49
2021/03/12 06:57:38;;;;;;;33.80;6.07;;;;;;;5.84;82.53;100347.03;5096891;28;20047;-49
2021/03/12 07:00:31;;;;;;;;;;;;;;;5.85;82.57;100340.38;5100303;28;20063;-48
2021/03/12 07:03:00;;;;;;;35.30;4.38;;;;;;;5.93;82.46;100346.50;5097946;28;19923;-47
2021/03/12 07:05:56;;;;;;;34.55;4.13;;;;;;;6.06;82.00;100359.75;5098900;28;20043;-45
2021/03/12 07:08:33;;;;;;;43.15;5.60;;;;;;;6.16;82.18;100341.16;5101230;28;20046;-49
2021/03/12 07:11:32;;;;;;;30.23;4.20;;;;;;;6.23;81.83;100341.66;5082899;28;20496;-50
2021/03/12 07:14:33;;;;;;;30.33;4.45;;;;;;;6.35;81.55;100341.38;5101104;28;20055;-46
2021/03/12 07:17:22;;;;;;;34.85;5.35;;;;;;;6.47;81.72;100350.16;5108113;28;20047;-48
2021/03/12 07:20:03;;;;;;;29.02;4.25;;;;;;;6.52;81.14;100343.78;5103871;28;20143;-47
2021/03/12 07:22:43;;;;;;;32.22;4.65;;;;;;;6.55;80.98;100338.50;5093907;28;20040;-46
2021/03/12 07:25:17;;;;;;;35.08;4.63;;;;;;;6.54;80.73;100328.53;5096635;28;20062;-50
2021/03/12 07:28:05;;;;;;;33.80;4.57;;;;;;;6.60;81.03;100331.25;5111968;28;20102;-49
2021/03/12 07:31:00;;;;;;;29.80;4.95;;;;;;;6.66;80.66;100324.56;5104522;28;20063;-49
2021/03/12 07:33:34;;;;;;;32.60;5.28;;;;;;;6.61;81.17;100341.22;5092704;28;20047;-49
2021/03/12 07:36:08;;;;;;;28.70;4.32;;;;;;;6.60;80.92;100326.53;5108189;28;20044;-48
2021/03/12 07:38:53;;;;;;;33.58;4.55;;;;;;;6.50;81.23;100332.13;5099212;28;20490;-46
2021/03/12 07:41:34;;;;;;;36.28;5.22;;;;;;;6.48;81.82;100328.81;5107732;27;20046;-49
2021/03/12 07:44:25;;;;;;;32.47;4.85;;;;;;;6.38;81.80;100340.81;5130089;27;20153;-51
2021/03/12 07:47:13;;;;;;;45.60;5.35;;;;;;;6.35;82.04;100340.53;5082046;27;20104;-50
2021/03/12 07:49:47;;;;;;;24.23;4.97;;;;;;;6.36;81.75;100337.47;5102489;27;20047;-48
2021/03/12 07:52:49;;;;;;;33.28;5.90;;;;;;;6.30;82.03;100338.59;5111600;27;20054;-48
2021/03/12 07:56:03;;;;;;;34.78;5.72;;;;;;;6.30;82.37;100335.84;5113512;27;20055;-51
2021/03/12 07:59:00;;;;;;;33.13;4.47;;;;;;;6.28;82.20;100338.06;5098014;27;20138;-48
2021/03/12 08:01:58;;;;;;;30.65;4.40;;;;;;;6.27;82.31;100332.81;5121976;27;20058;-49
2021/03/12 08:04:54;;;;;;;31.90;4.57;;;;;;;6.26;82.65;100331.97;5107767;27;20044;-50
2021/03/12 08:07:45;;;;;;;30.85;4.72;;;;;;;6.31;82.42;100343.03;5102926;28;20040;-52
2021/03/12 08:10:25;;;;;;;32.08;5.18;;;;;;;6.29;82.59;100323.09;5120225;27;20047;-52
2021/03/12 08:13:45;;;;;;;30.33;4.30;;;;;;;6.26;82.98;100334.75;5127281;27;20411;-51
2021/03/12 08:16:26;;;;;;;37.90;5.00;;;;;;;6.28;82.75;100329.75;5076678;28;20516;-47
2021/03/12 08:19:31;;;;;;;36.28;5.35;;;;;;;6.25;82.70;100330.31;5075089;28;20052;-46
2021/03/12 08:22:47;;;;;;;33.05;4.85;;;;;;;6.21;83.41;100330.03;5080268;28;20041;-49
2021/03/12 08:25:51;;;;;;;41.53;5.63;;;;;;;6.12;84.46;100351.16;5081787;28;20066;-47
2021/03/12 08:28:51;;;;;;;34.88;4.25;;;;;;;6.07;84.66;100336.47;5089585;28;20409;-52
2021/03/12 08:31:42;;;;;;;30.92;3.55;;;;;;;5.98;85.88;100338.19;5085712;28;20068;-54
2021/03/12 08:34:39;;;;;;;38.08;5.45;;;;;;;5.92;86.55;100337.38;5072014;28;20421;-50
2021/03/12 08:37:43;;;;;;;39.00;5.22;;;;;;;5.85;86.92;100326.53;5085329;28;20055;-51
2021/03/12 08:40:55;;;;;;;35.17;5.72;;;;;;;5.81;87.86;100324.59;5075575;28;20052;-51
2021/03/12 08:43:47;;;;;;;47.88;6.03;;;;;;;5.81;87.91;100311.59;5084161;28;20454;-53
2021/03/12 08:46:40;;;;;;;40.65;5.22;;;;;;;5.80;88.15;100307.16;5085030;28;20508;-54
2021/03/12 08:49:08;;;;;;;45.78;5.53;;;;;;;5.84;88.86;100305.50;5085760;28;20052;-52
2021/03/12 08:51:38;;;;;;;38.08;5.07;;;;;;;5.94;88.50;100307.47;5085202;28;20523;-51
2021/03/12 08:54:30;;;;;;;33.55;5.18;;;;;;;5.97;88.29;100306.06;5088091;28;20482;-54
2021/03/12 08:57:21;;;;;;;42.85;5.32;;;;;;;6.02;88.32;100294.94;5083526;28;20548;-51
2021/03/12 09:00:09;;;;;;;36.15;5.75;;;;;;;6.05;88.07;100295.22;5092082;28;20047;-53
2021/03/12 09:03:17;;;;;;;39.70;4.68;;;;;;;6.14;87.71;100304.59;5075381;28;20056;-54
2021/03/12 09:06:03;;;;;;;42.38;5.63;;;;;;;6.20;87.51;100297.09;5089775;28;20074;-52
2021/03/12 09:08:50;;;;;;;36.60;6.07;;;;;;;6.26;87.50;100290.41;5081260;28;20083;-53
2021/03/12 09:11:44;;;;;;;35.25;6.03;;;;;;;6.32;87.31;100286.50;5088247;28;20053;-50
2021/03/12 09:14:11;;;;;;;46.65;5.05;;;;;;;6.38;86.88;100279.84;5079126;28;20493;-54
2021/03/12 09:16:40;;;;;;;33.75;4.68;;;;;;;6.42;86.77;100275.34;5089322;28;20452;-51
2021/03/12 09:19:14;;;;;;;39.75;5.32;;;;;;;6.47;86.84;100275.34;5084406;28;20052;-55
2021/03/12 09:21:56;;;;;;;44.00;6.35;;;;;;;6.52;86.52;100272.53;5074102;28;20044;-54
2021/03/12 09:24:28;;;;;;;36.92;5.95;;;;;;;6.56;86.07;100268.09;5082167;28;20178;-56
2021/03/12 09:26:57;;;;;;;36.92;4.82;;;;;;;6.54;85.89;100267.53;5086615;28;20401;-56
2021/03/12 09:29:36;;;;;;;42.63;5.68;;;;;;;6.63;85.69;100261.38;5082123;28;20067;-55
2021/03/12 09:32:08;;;;;;;45.15;5.88;;;;;;;6.66;85.71;100263.56;5072670;28;20040;-55
2021/03/12 09:34:43;;;;;;;46.47;5.80;;;;;;;6.63;85.26;100261.38;5084218;28;20126;-56
2021/03/12 09:37:17;;;;;;;35.72;5.35;;;;;;;6.66;85.79;100264.41;5072681;28;20571;-59
2021/03/12 09:40:01;;;;;;;44.33;6.63;;;;;;;6.67;85.83;100254.97;5081839;28;20057;-54
2021/03/12 09:42:56;;;;;;;37.55;5.72;;;;;;;6.67;85.53;100245.81;5073220;28;20051;-54
2021/03/12 09:45:36;;;;;;;46.25;6.32;;;;;;;6.68;85.55;100234.44;5081015;28;20052;-54
2021/03/12 09:48:19;;;;;;;42.17;5.55;;;;;;;6.66;85.59;100242.22;5085404;28;20139;-57
2021/03/12 09:50:47;;;;;;;47.47;6.18;;;;;;;6.65;85.90;100228.66;5081035;28;20121;-53
2021/03/12 09:53:18;;;;;;;52.15;6.35;;;;;;;6.78;86.16;100223.28;5087416;28;20055;-57
2021/03/12 09:55:56;;;;;;;47.83;5.97;;;;;;;7.16;85.79;100231.81;5079896;28;20054;-54
2021/03/12 09:58:30;;;;;;;45.88;6.18;;;;;;;7.46;84.08;100227.91;5087349;28;20378;-51
2021/03/12 10:01:19;;;;;;;44.20;6.00;;;;;;;7.79;83.46;100223.38;5081444;28;20485;-53
2021/03/12 10:03:54;;;;;;;46.63;6.35;;;;;;;8.20;81.07;100209.75;5084686;28;20110;-53
2021/03/12 10:06:33;;;;;;;40.63;5.07;;;;;;;8.67;79.86;100207.97;5077356;28;20416;-52
2021/03/12 10:09:23;;;;;;;40.97;5.25;;;;;;;8.88;78.89;100204.56;5075543;28;20455;-53
2021/03/12 10:12:18;;;;;;;38.35;5.65;;;;;;;9.33;76.76;100216.03;5065759;28;20061;-53
2021/03/12 10:14:52;;;;;;;44.95;6.85;;;;;;;9.37;75.49;100213.47;5092315;28;20059;-53
2021/03/12 10:17:35;;;;;;;47.90;5.90;;;;;;;9.14;75.65;100213.31;5091811;28;20131;-54
2021/03/12 10:20:07;;;;;;;33.10;5.28;;;;;;;8.97;76.94;100196.34;5100340;28;20412;-52
2021/03/12 10:22:37;;;;;;;48.97;7.15;;;;;;;8.82;77.67;100183.50;5093675;27;20139;-55
2021/03/12 10:25:09;;;;;;;44.05;6.30;;;;;;;9.30;76.48;100178.47;5095040;28;20044;-51
2021/03/12 10:27:38;;;;;;;43.53;6.93;;;;;;;9.98;73.66;100193.56;5107062;28;20050;-53
2021/03/12 10:30:08;;;;;;;30.20;5.47;;;;;;;10.58;71.72;100187.75;5103135;28;20050;-54
2021/03/12 10:32:40;;;;;;;42.08;5.90;;;;;;;10.75;69.25;100181.47;5105465;28;20051;-57
2021/03/12 10:35:29;;;;;;;27.13;3.80;;;;;;;10.88;67.77;100173.03;5104820;28;20089;-63
2021/03/12 10:37:59;;;;;;;27.50;4.40;;;;;;;10.99;67.98;100174.41;5106344;28;20054;-59
2021/03/12 10:40:27;;;;;;;32.13;4.28;;;;;;;10.74;68.23;100172.28;5103299;28;20059;-59
2021/03/12 10:42:55;;;;;;;30.90;4.30;;;;;;;10.60;68.61;100189.06;5105231;28;20069;-56
2021/03/12 10:45:29;;;;;;;27.80;4.50;;;;;;;10.14;69.35;100182.88;5104875;28;20047;-57
2021/03/12 10:48:06;;;;;;;29.58;4.75;;;;;;;9.69;70.09;100185.50;5102189;28;20046;-52
2021/03/12 10:50:52;;;;;;;27.77;4.38;;;;;;;9.99;71.09;100170.91;5103004;28;20125;-57
2021/03/12 10:53:19;;;;;;;34.58;4.97;;;;;;;10.03;71.11;100188.69;5105966;28;20051;-53
2021/03/12 10:55:47;;;;;;;42.15;6.40;;;;;;;9.60;72.48;100177.03;5104726;28;20463;-56
2021/03/12 10:58:22;;;;;;;41.28;6.25;;;;;;;9.21;74.00;100163.59;5102993;28;20535;-51
2021/03/12 11:01:05;;;;;;;40.13;6.57;;;;;;;9.02;74.71;100170.38;5105220;28;20062;-51
2021/03/12 11:03:33;;;;;;;38.90;5.32;;;;;;;9.08;75.60;100169.97;5103517;28;20098;-52
2021/03/12 11:06:02;;;;;;;47.80;6.20;;;;;;;8.99;75.79;100158.72;5105287;28;20038;-52
2021/03/12 11:08:29;;;;;;;46.30;6.30;;;;;;;9.00;75.54;100156.75;5104988;28;20481;-50
2021/03/12 11:10:58;;;;;;;44.72;7.00;;;;;;;9.09;76.16;100142.97;5111564;28;20054;-48
2021/03/12 11:13:25;;;;;;;37.80;5.63;;;;;;;9.13;76.27;100150.41;5102789;28;20055;-50
2021/03/12 11:15:52;;;;;;;44.30;6.82;;;;;;;9.16;76.03;100148.97;5132043;27;20055;-47
2021/03/12 11:18:20;;;;;;;39.33;6.82;;;;;;;8.96;76.34;100151.00;5124188;27;20043;-52
2021/03/12 11:20:47;;;;;;;39.90;6.80;;;;;;;8.68;76.72;100143.72;5131940;27;20553;-48
2021/03/12 11:23:14;;;;;;;40.83;6.63;;;;;;;8.37;78.08;100135.06;5114849;28;20144;-52
2021/03/12 11:25:42;;;;;;;39.35;5.38;;;;;;;8.27;78.71;100143.50;5121623;27;20051;-52
2021/03/12 11:28:08;;;;;;;40.03;6.82;;;;;;;8.19;79.17;100139.44;5103987;27;20408;-52
2021/03/12 11:30:35;;;;;;;40.30;6.82;;;;;;;8.07;79.94;100129.91;5135150;27;20058;-49
2021/03/12 11:33:03;;;;;;;40.78;6.00;;;;;;;7.98;80.30;100131.75;5127865;27;20133;-47
2021/03/12 11:35:31;;;;;;;47.20;7.57;;;;;;;7.91;80.54;100130.16;5115127;28;20227;-48
2021/03/12 11:37:58;;;;;;;43.05;6.07;;;;;;;7.91;80.62;100132.94;5127513;27;20073;-50
2021/03/12 11:40:26;;;;;;;36.05;4.93;;;;;;;7.81;80.96;100124.72;5114779;27;20496;-47
2021/03/12 11:42:53;;;;;;;42.60;5.95;;;;;;;7.79;81.31;100121.44;5125240;27;20088;-51
2021/03/12 11:45:21;;;;;;;42.03;6.00;;;;;;;7.76;81.20;100124.81;5117693;27;20059;-48
2021/03/12 11:47:50;;;;;;;36.40;6.50;;;;;;;7.78;81.21;100108.69;5122377;27;20054;-51
2021/03/12 11:50:33;;;;;;;43.50;6.32;;;;;;;7.76;81.52;100110.09;5135347;27;20177;-51
2021/03/12 11:53:00;;;;;;;43.33;6.03;;;;;;;7.76;81.94;100102.59;5125515;27;20139;-48
2021/03/12 11:55:29;;;;;;;36.80;6.00;;;;;;;7.77;81.95;100089.53;5129747;27;20058;-49
2021/03/12 11:57:56;;;;;;;41.40;7.28;;;;;;;7.68;81.82;100092.16;5127371;27;20039;-49
2021/03/12 12:00:23;;;;;;;44.67;6.32;;;;;;;7.67;82.22;100082.16;5127726;27;20059;-47
2021/03/12 12:02:50;;;;;;;39.60;6.25;;;;;;;7.65;82.52;100080.81;5128924;27;20047;-49